Nekoosa, Wisconsin
Current Conditions -  °F | °C
As of 10:54 PM on Wednesday 22 Oct 2014 (Local Time) from KISW Reporting Station
Clear Clear  
Wind Chill: 38°   Ceiling: Unl
Heat Index: 43°   Visibility: 10mi
Dew Point: 35°   Wind: 8mph
Humidity: 74%   Direction: 140°SE
Pressure: 30.2"   Gusts: NA
Location:  44.31°N, 89.9°W
Report Text: KISW 230354Z AUTO 14007KT 10SM CLR 06/02 A3020 RMK AO2 SLP233 T00610017 $
Loading
Personal Weather Stations






























Interactive Weather Map
Tropical Storm Tracking
New forecast layout! Learn more

10-Day Weather Forecast

Advertisements
Track Severe Weather on mobile